Kinistino, Canada
Current Conditions -  °F | °C
As of 6:00 PM on Friday 19 Dec 2014 (Local Time) from CYPA Reporting Station
Light Snow Light Snow  
Wind Chill:   Ceiling: 200
Heat Index: 16°   Visibility: 0.75mi
Dew Point: 16°   Wind: 5mph
Humidity: 100%   Direction: 120°ESE
Pressure: 29.94"   Gusts: NA
Location:  52.95°N, 105.03°W
Report Text: CYPA 200000Z 12004KT 080V170 3/4SM R08/6000FT/N -SG BR OVC002 M09/M09 A2994 RMK ST8 SLP171
Loading
Personal Weather Stations






























Interactive Weather Map New forecast layout! Learn more

10-Day Weather Forecast

Advertisements
Track Severe Weather on mobile